Time;durP1;ratioP1;P1;durP2;ratioP2;P2;SDS_P1;SDS_P2;PMS_P1;PMS_P2;Temp;Humidity;BMP_temperature;BMP_pressure;BME280_temperature;BME280_humidity;BME280_pressure;Samples;Min_cycle;Max_cycle;Signal;HPM_P1;HPM_P2
2022/12/02 00:00:58;;;;;;;0.90;0.90;;;;;;;8.88;100.00;95485.22;5073933;28;20442;-55
2022/12/02 00:03:26;;;;;;;0.30;0.30;;;;;;;8.84;100.00;95492.06;5073537;28;20455;-55
2022/12/02 00:05:55;;;;;;;0.60;0.60;;;;;;;8.79;100.00;95497.31;5072698;28;20449;-55
2022/12/02 00:08:28;;;;;;;0.30;0.20;;;;;;;8.11;100.00;95379.25;5072409;28;20424;-55
2022/12/02 00:10:58;;;;;;;0.40;0.40;;;;;;;8.95;100.00;95514.88;5073126;28;20434;-55
2022/12/02 00:13:28;;;;;;;2.00;0.97;;;;;;;9.02;100.00;95498.00;5073603;28;20424;-55
2022/12/02 00:15:59;;;;;;;7.73;0.40;;;;;;;8.92;100.00;95494.25;5073613;28;20964;-55
2022/12/02 00:18:28;;;;;;;2.00;1.90;;;;;;;8.52;100.00;95459.59;5073320;28;20560;-55
2022/12/02 00:20:56;;;;;;;0.40;0.30;;;;;;;8.70;100.00;95505.97;5073210;28;20515;-55
2022/12/02 00:23:25;;;;;;;0.53;0.53;;;;;;;8.77;100.00;95499.44;5073421;28;20426;-55
2022/12/02 00:25:54;;;;;;;0.50;0.50;;;;;;;8.84;100.00;95505.28;5073083;28;20415;-55
2022/12/02 00:28:23;;;;;;;1.30;1.27;;;;;;;8.90;100.00;95511.41;5072421;28;20833;-55
2022/12/02 00:30:51;;;;;;;1.30;1.30;;;;;;;8.93;100.00;95497.66;5073032;28;20428;-55
2022/12/02 00:33:20;;;;;;;0.80;0.80;;;;;;;8.83;100.00;95506.34;5072424;28;20436;-55
2022/12/02 00:35:49;;;;;;;0.40;0.30;;;;;;;8.82;100.00;95509.25;5072627;28;20423;-55
2022/12/02 00:38:17;;;;;;;0.30;0.30;;;;;;;8.90;100.00;95501.63;5072440;28;20479;-55
2022/12/02 00:40:45;;;;;;;0.30;0.20;;;;;;;8.83;100.00;95493.13;5072781;28;20438;-55
2022/12/02 00:48:46;;;;;;;0.43;0.40;;;;;;;8.88;100.00;95489.72;5072747;28;20778;-55
2022/12/02 00:51:14;;;;;;;0.30;0.20;;;;;;;8.98;100.00;95496.94;5072400;28;20433;-55
2022/12/02 00:53:43;;;;;;;0.40;0.40;;;;;;;8.95;100.00;95496.38;5072551;28;20521;-55
2022/12/02 00:56:11;;;;;;;0.40;0.30;;;;;;;8.97;100.00;95495.31;5072843;28;20437;-55
2022/12/02 00:58:39;;;;;;;0.47;0.47;;;;;;;8.99;100.00;95496.66;5072247;28;20857;-55
2022/12/02 01:01:08;;;;;;;0.30;0.20;;;;;;;9.02;100.00;95498.00;5072654;28;20477;-55
2022/12/02 01:03:37;;;;;;;0.50;0.50;;;;;;;8.99;100.00;95486.09;5072530;28;20509;-55
2022/12/02 01:06:14;;;;;;;0.60;0.60;;;;;;;8.99;100.00;95485.28;5072249;28;20435;-55
2022/12/02 01:08:42;;;;;;;0.40;0.37;;;;;;;9.01;100.00;95477.91;5072313;28;20635;-55
2022/12/02 01:11:11;;;;;;;0.40;0.30;;;;;;;8.88;100.00;95464.06;5072210;28;20449;-55
2022/12/02 01:13:40;;;;;;;0.30;0.20;;;;;;;8.91;100.00;95462.78;5072184;28;20425;-55
2022/12/02 01:16:08;;;;;;;0.40;0.30;;;;;;;9.10;100.00;95493.06;5072463;28;20504;-55
2022/12/02 01:18:37;;;;;;;0.40;0.40;;;;;;;9.12;100.00;95487.50;5072178;28;20524;-55
2022/12/02 01:21:05;;;;;;;1.63;1.53;;;;;;;9.09;100.00;95491.44;5071970;28;20516;-55
2022/12/02 01:23:35;;;;;;;0.40;0.30;;;;;;;9.13;100.00;95494.38;5072027;28;20434;-55
2022/12/02 01:26:03;;;;;;;0.40;0.30;;;;;;;9.16;100.00;95493.88;5072260;28;20437;-55
2022/12/02 01:28:32;;;;;;;0.30;0.30;;;;;;;8.91;100.00;95490.00;5071407;28;20431;-55
2022/12/02 01:31:00;;;;;;;0.30;0.30;;;;;;;8.69;100.00;95497.25;5070349;28;20962;-55
2022/12/02 01:33:28;;;;;;;0.70;0.67;;;;;;;8.62;100.00;95490.59;5070538;28;20425;-55
2022/12/02 01:35:56;;;;;;;0.43;0.40;;;;;;;8.42;100.00;95485.94;5071326;28;20787;-55
2022/12/02 01:38:25;;;;;;;1.03;0.60;;;;;;;8.27;100.00;95491.84;5070915;28;20561;-55
2022/12/02 01:40:55;;;;;;;0.30;0.30;;;;;;;8.30;100.00;95496.66;5071170;28;20585;-55
2022/12/02 01:43:23;;;;;;;1.00;1.00;;;;;;;8.19;100.00;95497.59;5070764;28;20470;-55
2022/12/02 01:45:51;;;;;;;0.93;0.93;;;;;;;8.01;100.00;95500.56;5071748;28;20522;-56
2022/12/02 01:48:20;;;;;;;1.03;1.03;;;;;;;7.95;100.00;95500.75;5071349;28;20429;-55
2022/12/02 01:50:50;;;;;;;0.40;0.30;;;;;;;8.07;100.00;95511.97;5071497;28;20917;-55
2022/12/02 01:53:18;;;;;;;0.40;0.40;;;;;;;8.20;100.00;95499.16;5071208;28;20479;-55
2022/12/02 01:55:46;;;;;;;0.60;0.30;;;;;;;8.48;100.00;95508.69;5071111;28;20423;-55
2022/12/02 01:58:18;;;;;;;4.10;1.03;;;;;;;8.66;100.00;95504.88;5071387;28;20566;-55
2022/12/02 02:00:46;;;;;;;0.40;0.30;;;;;;;8.71;100.00;95504.91;5071797;28;20431;-55
2022/12/02 02:03:15;;;;;;;0.67;0.67;;;;;;;8.65;100.00;95503.31;5071945;28;20811;-55
2022/12/02 02:05:43;;;;;;;0.40;0.40;;;;;;;8.73;100.00;95505.44;5070610;28;20440;-56
2022/12/02 02:08:12;;;;;;;3.50;0.60;;;;;;;8.52;100.00;95504.50;5071475;28;20445;-55
2022/12/02 02:10:43;;;;;;;0.33;0.30;;;;;;;8.54;100.00;95514.81;5071110;28;20431;-55
2022/12/02 02:13:17;;;;;;;0.60;0.57;;;;;;;8.62;100.00;95507.25;5070443;28;20427;-55
2022/12/02 02:15:45;;;;;;;0.40;0.30;;;;;;;8.65;100.00;95501.44;5071459;28;20481;-55
2022/12/02 02:18:16;;;;;;;0.37;0.33;;;;;;;8.61;100.00;95505.63;5071317;28;20477;-55
2022/12/02 02:20:45;;;;;;;0.50;0.50;;;;;;;8.58;100.00;95492.13;5070440;28;21004;-55
2022/12/02 02:23:23;;;;;;;0.83;0.80;;;;;;;8.56;100.00;95502.94;5071295;28;20434;-55
2022/12/02 02:25:55;;;;;;;0.60;0.60;;;;;;;8.67;100.00;95507.28;5071161;28;20429;-55
2022/12/02 02:28:24;;;;;;;0.30;0.30;;;;;;;8.66;100.00;95494.31;5071421;28;20445;-55
2022/12/02 02:30:55;;;;;;;0.30;0.20;;;;;;;8.74;100.00;95499.13;5071524;28;20423;-55
2022/12/02 02:33:26;;;;;;;6.50;0.40;;;;;;;8.66;100.00;95503.03;5070527;28;20492;-55
2022/12/02 02:35:55;;;;;;;0.47;0.47;;;;;;;8.71;100.00;95516.28;5070465;28;20966;-55
2022/12/02 02:38:28;;;;;;;0.50;0.30;;;;;;;8.50;100.00;95511.88;5070850;28;20478;-55
2022/12/02 02:40:58;;;;;;;9.23;0.93;;;;;;;8.54;100.00;95520.91;5070951;28;20465;-55
2022/12/02 02:43:29;;;;;;;0.30;0.20;;;;;;;8.64;100.00;95520.19;5071017;28;20434;-55
2022/12/02 02:46:00;;;;;;;1.70;1.70;;;;;;;8.70;100.00;95517.31;5071208;28;20429;-55
2022/12/02 02:48:29;;;;;;;0.50;0.43;;;;;;;8.74;100.00;95515.00;5071438;28;20442;-55
2022/12/02 02:50:58;;;;;;;0.57;0.57;;;;;;;8.64;100.00;95504.34;5071117;28;20434;-55
2022/12/02 02:53:29;;;;;;;0.30;0.30;;;;;;;8.24;100.00;95438.75;5070883;28;20987;-55
2022/12/02 02:55:57;;;;;;;1.03;1.03;;;;;;;8.50;100.00;95506.59;5070983;28;20437;-55
2022/12/02 02:58:27;;;;;;;1.30;0.60;;;;;;;8.57;100.00;95538.09;5071223;28;20889;-55
2022/12/02 03:01:00;;;;;;;0.83;0.83;;;;;;;8.52;100.00;95533.56;5074174;28;20431;-55
2022/12/02 03:03:32;;;;;;;6.27;1.60;;;;;;;8.53;100.00;95540.44;5074210;28;20519;-55
2022/12/02 03:06:01;;;;;;;0.40;0.40;;;;;;;8.48;100.00;95516.63;5074469;28;20431;-55
2022/12/02 03:08:31;;;;;;;0.50;0.50;;;;;;;8.61;100.00;95536.53;5074559;28;21010;-55
2022/12/02 03:11:02;;;;;;;0.60;0.60;;;;;;;8.27;100.00;95544.66;5074564;28;20918;-55
2022/12/02 03:13:33;;;;;;;0.80;0.80;;;;;;;8.05;100.00;95543.88;5074473;28;20957;-55
2022/12/02 03:16:03;;;;;;;1.20;1.10;;;;;;;8.09;100.00;95545.00;5074363;28;20453;-55
2022/12/02 03:18:34;;;;;;;0.97;0.97;;;;;;;7.96;100.00;95555.13;5074437;28;20479;-55
2022/12/02 03:21:03;;;;;;;0.70;0.70;;;;;;;7.98;100.00;95547.75;5074526;28;20430;-55
2022/12/02 03:23:33;;;;;;;1.13;1.13;;;;;;;8.03;100.00;95550.44;5074067;28;20951;-56
2022/12/02 03:26:02;;;;;;;2.00;2.00;;;;;;;8.03;100.00;95550.44;5074240;28;20430;-55
2022/12/02 03:28:33;;;;;;;2.10;0.70;;;;;;;8.23;100.00;95553.31;5074105;28;20422;-55
2022/12/02 03:31:01;;;;;;;0.70;0.70;;;;;;;8.36;100.00;95538.94;5073875;28;20754;-55
2022/12/02 03:33:30;;;;;;;0.40;0.40;;;;;;;8.53;100.00;95551.00;5074331;28;20437;-55
2022/12/02 03:35:58;;;;;;;0.70;0.70;;;;;;;8.53;100.00;95548.34;5073198;28;20432;-55
2022/12/02 03:38:28;;;;;;;0.40;0.40;;;;;;;8.34;100.00;95549.78;5073814;28;20477;-55
2022/12/02 03:40:57;;;;;;;1.17;1.17;;;;;;;8.43;100.00;95550.91;5073919;28;20439;-55
2022/12/02 03:43:26;;;;;;;0.30;0.27;;;;;;;8.27;100.00;95557.88;5073809;28;20989;-55
2022/12/02 03:45:55;;;;;;;2.47;0.70;;;;;;;7.86;100.00;95478.50;5073718;28;20443;-55
2022/12/02 03:48:24;;;;;;;2.33;0.83;;;;;;;8.38;100.00;95564.06;5074132;28;20480;-55
2022/12/02 03:50:54;;;;;;;0.90;0.90;;;;;;;8.48;100.00;95548.31;5073632;28;20430;-55
2022/12/02 03:53:23;;;;;;;0.30;0.20;;;;;;;8.49;100.00;95565.75;5073550;28;20471;-56
2022/12/02 03:55:51;;;;;;;0.80;0.50;;;;;;;8.57;100.00;95556.59;5073634;28;20422;-55
2022/12/02 03:58:33;;;;;;;0.70;0.67;;;;;;;8.36;100.00;95562.72;5073579;28;20419;-55
2022/12/02 04:01:01;;;;;;;0.80;0.70;;;;;;;8.40;100.00;95569.09;5073566;28;20436;-56
2022/12/02 04:03:30;;;;;;;0.70;0.70;;;;;;;8.38;100.00;95564.06;5073163;28;20488;-56
2022/12/02 04:05:58;;;;;;;0.40;0.30;;;;;;;8.40;100.00;95561.97;5073063;28;20463;-55
2022/12/02 04:08:26;;;;;;;0.50;0.50;;;;;;;8.59;100.00;95568.50;5073295;28;21098;-55
2022/12/02 04:10:54;;;;;;;0.30;0.20;;;;;;;8.64;100.00;95573.84;5073455;28;20882;-55
2022/12/02 04:13:24;;;;;;;0.40;0.30;;;;;;;8.56;100.00;95558.44;5072950;28;20424;-55
2022/12/02 04:15:52;;;;;;;0.97;0.97;;;;;;;8.72;100.00;95570.75;5072837;28;20433;-56
2022/12/02 04:18:21;;;;;;;0.30;0.30;;;;;;;8.71;100.00;95574.41;5073091;28;20448;-55
2022/12/02 04:20:49;;;;;;;0.40;0.37;;;;;;;8.59;100.00;95571.16;5073130;28;20506;-56
2022/12/02 04:23:18;;;;;;;1.13;0.50;;;;;;;8.66;100.00;95577.00;5072999;28;20437;-56
2022/12/02 04:25:46;;;;;;;0.40;0.40;;;;;;;8.45;100.00;95579.72;5073059;28;20442;-55
2022/12/02 04:28:14;;;;;;;0.43;0.43;;;;;;;8.60;100.00;95577.22;5073026;28;20873;-55
2022/12/02 04:30:44;;;;;;;0.43;0.40;;;;;;;8.67;100.00;95573.34;5072868;28;20512;-56
2022/12/02 04:33:12;;;;;;;1.27;0.73;;;;;;;8.61;100.00;95582.25;5072923;28;20426;-55
2022/12/02 04:35:41;;;;;;;5.50;0.93;;;;;;;8.54;100.00;95591.44;5072907;28;20537;-55
2022/12/02 04:38:09;;;;;;;0.40;0.40;;;;;;;8.34;100.00;95591.22;5072518;28;20430;-55
2022/12/02 04:40:40;;;;;;;0.83;0.83;;;;;;;8.50;100.00;95592.97;5072473;28;20832;-55
2022/12/02 04:43:08;;;;;;;2.07;1.43;;;;;;;8.62;100.00;95594.44;5072721;28;20914;-55
2022/12/02 04:45:36;;;;;;;0.40;0.30;;;;;;;8.60;100.00;95599.13;5072505;28;20927;-55
2022/12/02 04:48:06;;;;;;;0.50;0.30;;;;;;;8.60;100.00;95599.13;5072053;28;20437;-56
2022/12/02 04:50:37;;;;;;;2.00;1.43;;;;;;;8.69;100.00;95587.09;5072369;28;20430;-56
2022/12/02 04:53:05;;;;;;;0.50;0.40;;;;;;;8.72;100.00;95586.59;5072306;28;20502;-56
2022/12/02 04:55:34;;;;;;;1.43;1.10;;;;;;;8.42;100.00;95596.88;5072314;28;20441;-56
2022/12/02 04:58:02;;;;;;;0.60;0.60;;;;;;;8.36;100.00;95599.69;5072743;28;20421;-55
2022/12/02 05:00:30;;;;;;;1.07;0.60;;;;;;;8.54;100.00;95612.56;5072438;28;20492;-56
2022/12/02 05:02:59;;;;;;;1.27;1.27;;;;;;;8.20;100.00;95561.72;5072500;28;20424;-56
2022/12/02 05:05:29;;;;;;;0.63;0.63;;;;;;;8.57;100.00;95615.50;5071890;28;20483;-54
2022/12/02 05:07:57;;;;;;;0.53;0.53;;;;;;;8.68;100.00;95608.47;5072557;28;20768;-55
2022/12/02 05:10:26;;;;;;;0.90;0.90;;;;;;;8.61;100.00;95608.66;5072577;28;20438;-55
2022/12/02 05:12:56;;;;;;;0.50;0.50;;;;;;;8.54;100.00;95616.00;5072298;28;20461;-55
2022/12/02 05:15:24;;;;;;;0.70;0.70;;;;;;;8.52;100.00;95617.31;5072539;28;20432;-56
2022/12/02 05:17:53;;;;;;;1.03;0.93;;;;;;;7.80;100.00;95511.94;5072190;28;20424;-55
2022/12/02 05:20:21;;;;;;;0.80;0.80;;;;;;;8.28;100.00;95593.00;5071974;28;20481;-55
2022/12/02 05:22:51;;;;;;;0.70;0.70;;;;;;;8.26;100.00;95609.09;5071770;28;20955;-55
2022/12/02 05:25:20;;;;;;;3.03;2.53;;;;;;;8.28;100.00;95614.94;5071871;28;20950;-55
2022/12/02 05:27:48;;;;;;;1.17;1.17;;;;;;;8.26;100.00;95619.66;5071989;28;20429;-55
2022/12/02 05:30:16;;;;;;;0.90;0.90;;;;;;;8.05;100.00;95603.78;5071743;28;20902;-55
2022/12/02 05:32:45;;;;;;;0.70;0.70;;;;;;;7.72;100.00;95622.34;5071986;28;20504;-55
2022/12/02 05:35:13;;;;;;;0.77;0.77;;;;;;;7.16;100.00;95616.28;5071636;28;20427;-55
2022/12/02 05:37:41;;;;;;;1.63;1.63;;;;;;;7.55;100.00;95619.78;5071742;28;20517;-56
2022/12/02 05:40:11;;;;;;;3.70;1.93;;;;;;;7.84;100.00;95615.16;5071534;28;20476;-56
2022/12/02 05:42:40;;;;;;;0.50;0.50;;;;;;;7.74;100.00;95594.72;5071901;28;20517;-55
2022/12/02 05:45:15;;;;;;;0.77;0.77;;;;;;;7.91;100.00;95621.03;5071706;28;20525;-56
2022/12/02 05:47:51;;;;;;;0.40;0.40;;;;;;;7.82;100.00;95630.44;5071826;28;20421;-53
2022/12/02 05:50:20;;;;;;;1.23;1.03;;;;;;;7.40;100.00;95636.19;5071388;28;20434;-55
2022/12/02 05:52:49;;;;;;;1.03;0.90;;;;;;;7.00;100.00;95643.44;5071032;28;20842;-54
2022/12/02 05:55:21;;;;;;;1.37;1.27;;;;;;;7.13;100.00;95623.88;5071802;28;20430;-55
2022/12/02 05:57:50;;;;;;;1.97;1.87;;;;;;;7.43;100.00;95642.81;5071832;28;20516;-55
2022/12/02 06:00:21;;;;;;;0.60;0.60;;;;;;;7.60;100.00;95647.03;5071786;28;20469;-55
2022/12/02 06:02:52;;;;;;;1.23;1.17;;;;;;;7.64;100.00;95642.03;5071421;28;20434;-55
2022/12/02 06:05:23;;;;;;;0.50;0.50;;;;;;;7.36;100.00;95645.59;5071608;28;21113;-55
2022/12/02 06:07:53;;;;;;;1.77;0.60;;;;;;;7.51;100.00;95653.72;5071824;28;20434;-55
2022/12/02 06:10:26;;;;;;;7.37;0.60;;;;;;;6.93;100.00;95563.75;5071572;28;20418;-55
2022/12/02 06:12:58;;;;;;;0.40;0.33;;;;;;;7.56;100.00;95661.72;5071850;28;20508;-55
2022/12/02 06:15:32;;;;;;;4.07;1.33;;;;;;;7.89;100.00;95654.81;5071168;28;20429;-55
2022/12/02 06:18:01;;;;;;;1.27;1.10;;;;;;;8.39;100.00;95658.09;5071618;28;20429;-55
2022/12/02 06:20:33;;;;;;;0.50;0.40;;;;;;;8.21;100.00;95613.50;5070719;28;20520;-55
2022/12/02 06:23:03;;;;;;;1.37;1.27;;;;;;;8.58;100.00;95662.00;5071192;28;20430;-55
2022/12/02 06:25:33;;;;;;;1.47;1.37;;;;;;;8.58;100.00;95666.47;5071225;28;20432;-55
2022/12/02 06:28:12;;;;;;;0.67;0.67;;;;;;;8.92;100.00;95663.44;5071477;28;20430;-55
2022/12/02 06:30:41;;;;;;;1.07;1.03;;;;;;;9.45;100.00;95659.09;5070844;28;20934;-55
2022/12/02 06:33:19;;;;;;;1.57;1.47;;;;;;;9.74;100.00;95643.69;5071020;28;20445;-56
2022/12/02 06:35:50;;;;;;;1.70;1.60;;;;;;;10.17;100.00;95659.31;5073578;28;20428;-55
2022/12/02 06:38:27;;;;;;;1.77;1.70;;;;;;;10.34;100.00;95656.47;5074690;28;20431;-54
2022/12/02 06:40:59;;;;;;;1.60;1.43;;;;;;;10.95;100.00;95658.25;5074446;28;20861;-54
2022/12/02 06:43:33;;;;;;;3.20;2.93;;;;;;;11.14;100.00;95656.69;5074423;28;20424;-55
2022/12/02 06:46:01;;;;;;;1.73;1.70;;;;;;;10.57;100.00;95492.53;5074436;28;20515;-56
2022/12/02 06:48:32;;;;;;;2.33;2.23;;;;;;;11.79;99.96;95655.88;5074636;28;20929;-56
2022/12/02 06:51:12;;;;;;;2.00;2.00;;;;;;;12.44;89.56;95654.94;5074974;28;20497;-57
2022/12/02 06:53:42;;;;;;;3.17;2.03;;;;;;;12.64;93.11;95654.84;5074626;28;20483;-56
2022/12/02 06:56:19;;;;;;;2.07;1.97;;;;;;;12.70;91.22;95643.09;5074512;28;20906;-57
2022/12/02 06:58:55;;;;;;;5.13;2.47;;;;;;;12.89;92.70;95655.75;5074386;28;20427;-58
2022/12/02 07:01:30;;;;;;;4.10;3.90;;;;;;;13.10;89.64;95654.59;5074728;28;20488;-59
2022/12/02 07:04:27;;;;;;;3.53;3.43;;;;;;;13.51;84.71;95658.53;5074375;28;20442;-59
2022/12/02 07:06:59;;;;;;;2.10;2.00;;;;;;;13.82;81.56;95659.06;5074316;28;20794;-60
2022/12/02 07:09:36;;;;;;;2.70;2.60;;;;;;;14.27;76.65;95655.19;5074082;28;20798;-60
2022/12/02 07:12:12;;;;;;;0.70;0.70;;;;;;;13.94;75.68;95654.97;5073550;28;20522;-59
2022/12/02 07:14:45;;;;;;;9.83;1.93;;;;;;;14.06;73.50;95656.47;5074574;28;20519;-59
2022/12/02 07:17:20;;;;;;;1.50;1.50;;;;;;;14.43;72.10;95656.59;5074105;28;20432;-59
2022/12/02 07:19:54;;;;;;;3.13;2.93;;;;;;;14.13;72.86;95623.06;5074323;28;20424;-59
2022/12/02 07:22:25;;;;;;;1.17;1.10;;;;;;;14.43;72.82;95661.94;5074250;28;20510;-59
2022/12/02 07:24:58;;;;;;;1.10;1.07;;;;;;;14.62;74.55;95662.78;5074452;28;20429;-58
2022/12/02 07:27:31;;;;;;;2.53;2.33;;;;;;;15.25;70.74;95655.25;5074034;28;20468;-58
2022/12/02 07:30:01;;;;;;;1.73;1.63;;;;;;;15.44;69.47;95664.03;5074309;28;20422;-57
2022/12/02 07:32:29;;;;;;;3.80;2.93;;;;;;;15.82;68.13;95670.13;5073720;28;20433;-57
2022/12/02 07:34:57;;;;;;;1.10;1.10;;;;;;;15.57;67.33;95670.53;5073188;28;20422;-57
2022/12/02 07:37:26;;;;;;;1.87;1.77;;;;;;;15.63;69.98;95670.19;5073758;28;20434;-57
2022/12/02 07:39:54;;;;;;;1.70;1.47;;;;;;;15.76;68.38;95672.06;5073844;28;20814;-57
2022/12/02 07:42:22;;;;;;;2.40;2.30;;;;;;;15.60;69.05;95677.97;5074056;28;20473;-57
2022/12/02 07:44:52;;;;;;;0.77;0.77;;;;;;;16.16;68.84;95673.28;5073712;28;20422;-58
2022/12/02 07:47:20;;;;;;;1.37;1.27;;;;;;;16.39;67.35;95671.50;5073627;28;20980;-57
2022/12/02 07:49:49;;;;;;;11.80;1.60;;;;;;;16.80;68.26;95660.81;5073352;28;20513;-58
2022/12/02 07:52:17;;;;;;;2.93;1.93;;;;;;;16.62;66.21;95677.78;5073505;28;20470;-57
2022/12/02 07:54:45;;;;;;;1.73;1.50;;;;;;;16.70;64.55;95669.03;5073495;28;20429;-57
2022/12/02 07:57:13;;;;;;;2.23;0.80;;;;;;;17.28;62.72;95677.97;5073555;28;20521;-57
2022/12/02 07:59:42;;;;;;;2.43;2.33;;;;;;;17.08;61.87;95681.09;5073413;28;20441;-57
2022/12/02 08:02:11;;;;;;;1.47;1.37;;;;;;;16.76;63.49;95646.44;5073341;28;21013;-58
2022/12/02 08:04:40;;;;;;;2.90;2.80;;;;;;;17.59;61.65;95681.56;5073317;28;20520;-58
2022/12/02 08:07:08;;;;;;;1.73;1.63;;;;;;;17.09;59.32;95677.31;5073306;28;20439;-57
2022/12/02 08:09:36;;;;;;;2.00;1.43;;;;;;;17.58;58.57;95679.97;5073515;28;20977;-57
2022/12/02 08:12:06;;;;;;;4.60;1.97;;;;;;;17.94;60.12;95660.34;5073102;28;20468;-55
2022/12/02 08:14:34;;;;;;;1.80;1.70;;;;;;;18.27;58.16;95661.63;5073220;28;20432;-55
2022/12/02 08:17:02;;;;;;;1.87;1.77;;;;;;;18.44;56.64;95677.00;5073154;28;20425;-55
2022/12/02 08:19:32;;;;;;;0.97;0.97;;;;;;;18.50;55.86;95679.28;5073249;28;20510;-55
2022/12/02 08:22:01;;;;;;;2.47;1.50;;;;;;;19.01;55.63;95673.25;5073356;28;20492;-55
2022/12/02 08:24:29;;;;;;;2.20;2.10;;;;;;;18.33;53.43;95574.53;5072875;28;20495;-53
2022/12/02 08:26:58;;;;;;;1.40;1.30;;;;;;;19.42;55.77;95675.56;5072823;28;20474;-53
2022/12/02 08:29:27;;;;;;;0.77;0.77;;;;;;;18.85;53.12;95667.53;5072686;28;20426;-53
2022/12/02 08:31:55;;;;;;;1.57;1.40;;;;;;;19.30;52.51;95676.13;5073250;28;20440;-53
2022/12/02 08:34:24;;;;;;;5.00;1.83;;;;;;;19.84;50.70;95669.34;5072700;28;20476;-53
2022/12/02 08:36:54;;;;;;;1.23;1.23;;;;;;;20.00;52.29;95675.03;5072762;28;20418;-54
2022/12/02 08:39:22;;;;;;;2.10;1.43;;;;;;;19.51;50.30;95679.03;5072691;28;20937;-54
2022/12/02 08:41:50;;;;;;;1.37;1.17;;;;;;;19.04;52.28;95675.31;5072701;28;20481;-54
2022/12/02 08:44:18;;;;;;;6.20;2.80;;;;;;;19.57;53.14;95673.19;5072603;28;20569;-53
2022/12/02 08:46:47;;;;;;;1.57;1.47;;;;;;;19.91;51.81;95674.28;5072746;28;20791;-54
2022/12/02 08:49:21;;;;;;;5.00;2.30;;;;;;;19.67;50.67;95637.09;5072580;28;20546;-54
2022/12/02 08:51:50;;;;;;;2.30;1.07;;;;;;;20.31;49.81;95685.59;5072163;28;20500;-54
2022/12/02 08:54:19;;;;;;;3.43;1.83;;;;;;;19.69;50.25;95674.44;5072456;28;20440;-54
2022/12/02 08:56:48;;;;;;;1.63;1.53;;;;;;;20.22;50.59;95685.59;5071627;28;20438;-54
2022/12/02 08:59:16;;;;;;;1.00;1.00;;;;;;;21.11;47.72;95682.72;5072231;28;20782;-54
2022/12/02 09:01:44;;;;;;;0.70;0.70;;;;;;;20.60;48.57;95621.00;5072250;28;20556;-55
2022/12/02 09:04:13;;;;;;;2.60;1.13;;;;;;;19.40;52.10;95681.25;5072310;28;20460;-54
2022/12/02 09:06:41;;;;;;;2.90;0.90;;;;;;;19.31;52.43;95680.41;5072450;28;20434;-55
2022/12/02 09:09:10;;;;;;;1.17;1.07;;;;;;;17.55;54.64;95691.31;5072506;28;20421;-55
2022/12/02 09:11:40;;;;;;;1.40;1.30;;;;;;;17.48;56.26;95687.44;5072014;28;20438;-56
2022/12/02 09:14:08;;;;;;;2.00;1.70;;;;;;;17.09;56.11;95688.84;5072288;28;20436;-56
2022/12/02 09:16:37;;;;;;;0.57;0.53;;;;;;;17.77;55.40;95693.19;5072047;28;20886;-56
2022/12/02 09:19:05;;;;;;;0.97;0.97;;;;;;;18.02;54.74;95687.22;5071890;28;20521;-57
2022/12/02 09:21:33;;;;;;;2.20;2.07;;;;;;;16.52;57.73;95692.94;5071797;28;20552;-55
2022/12/02 09:24:02;;;;;;;0.50;0.40;;;;;;;17.03;60.62;95687.34;5072005;28;20418;-55
2022/12/02 09:26:30;;;;;;;1.60;1.50;;;;;;;16.52;59.33;95684.09;5071137;28;20433;-54
2022/12/02 09:28:59;;;;;;;2.87;1.27;;;;;;;15.79;60.60;95692.09;5071788;28;20429;-55
2022/12/02 09:31:28;;;;;;;1.00;1.00;;;;;;;15.92;61.30;95685.19;5071868;28;20973;-55
2022/12/02 09:33:56;;;;;;;1.50;1.40;;;;;;;15.66;62.20;95677.59;5071816;28;20512;-56
2022/12/02 09:36:24;;;;;;;0.60;0.50;;;;;;;15.92;61.56;95680.63;5071850;28;20440;-57
2022/12/02 09:38:53;;;;;;;7.00;0.80;;;;;;;16.38;59.86;95681.41;5072138;28;20472;-58
2022/12/02 09:41:21;;;;;;;0.73;0.73;;;;;;;16.80;60.16;95677.66;5071732;28;20410;-58
2022/12/02 09:43:50;;;;;;;1.60;1.50;;;;;;;15.47;63.60;95686.72;5072040;28;20925;-58
2022/12/02 09:46:20;;;;;;;14.37;1.57;;;;;;;15.52;64.63;95679.44;5071709;28;21000;-58
2022/12/02 09:48:52;;;;;;;2.50;2.03;;;;;;;14.80;67.66;95661.22;5071731;28;20512;-57
2022/12/02 09:51:20;;;;;;;0.70;0.70;;;;;;;14.97;68.45;95672.19;5071454;28;20430;-57
2022/12/02 09:53:48;;;;;;;6.70;3.43;;;;;;;15.14;68.34;95669.81;5071686;28;20508;-58
2022/12/02 09:56:18;;;;;;;1.40;1.30;;;;;;;14.61;69.29;95671.84;5071951;28;20422;-57
2022/12/02 09:58:49;;;;;;;7.03;2.20;;;;;;;15.16;68.31;95668.44;5071307;28;20941;-58
2022/12/02 10:01:19;;;;;;;1.90;1.90;;;;;;;15.07;68.03;95672.06;5071583;28;20524;-58
2022/12/02 10:03:50;;;;;;;1.53;1.23;;;;;;;15.23;67.82;95666.19;5071619;28;20496;-59
2022/12/02 10:06:23;;;;;;;1.57;1.47;;;;;;;15.64;66.91;95674.41;5071377;28;20474;-59
2022/12/02 10:08:52;;;;;;;1.17;1.10;;;;;;;15.00;67.00;95675.06;5072937;28;20465;-59
2022/12/02 10:11:23;;;;;;;1.27;0.77;;;;;;;14.91;68.83;95652.78;5075578;28;20422;-60
2022/12/02 10:13:51;;;;;;;2.87;0.70;;;;;;;15.21;68.40;95676.38;5075337;28;20429;-60
2022/12/02 10:16:21;;;;;;;4.03;1.93;;;;;;;14.76;68.85;95646.84;5075443;28;21029;-60
2022/12/02 10:18:50;;;;;;;2.00;1.10;;;;;;;14.44;70.01;95612.88;5075637;28;20436;-60
2022/12/02 10:21:18;;;;;;;0.60;0.50;;;;;;;14.17;71.25;95661.38;5075517;28;20428;-60
2022/12/02 10:23:56;;;;;;;1.80;1.37;;;;;;;13.99;74.11;95680.75;5075539;28;20469;-60
2022/12/02 10:26:25;;;;;;;2.77;1.10;;;;;;;14.41;73.65;95680.09;5075331;28;20520;-59
2022/12/02 10:29:03;;;;;;;0.63;0.63;;;;;;;14.94;70.67;95670.09;5075530;28;20449;-61
2022/12/02 10:31:33;;;;;;;0.93;0.93;;;;;;;14.52;71.43;95673.59;5074479;28;20435;-60
2022/12/02 10:34:03;;;;;;;10.77;0.97;;;;;;;13.98;73.53;95666.66;5075464;28;20429;-61
2022/12/02 10:36:36;;;;;;;1.17;1.17;;;;;;;14.40;73.70;95670.50;5075392;28;20553;-61
2022/12/02 10:39:22;;;;;;;0.83;0.50;;;;;;;14.26;73.24;95694.38;5075003;28;20424;-61
2022/12/02 10:41:52;;;;;;;0.80;0.67;;;;;;;14.71;72.33;95670.94;5075039;28;20437;-62
2022/12/02 10:44:22;;;;;;;1.00;0.90;;;;;;;14.34;72.35;95663.66;5075159;28;20465;-62
2022/12/02 10:47:09;;;;;;;0.70;0.70;;;;;;;14.55;72.25;95652.44;5074968;28;20954;-62
2022/12/02 10:49:38;;;;;;;5.57;1.07;;;;;;;14.41;70.68;95616.91;5074865;28;20436;-64
2022/12/02 10:52:09;;;;;;;3.40;2.37;;;;;;;14.74;70.89;95657.81;5074570;28;20996;-62
2022/12/02 10:54:40;;;;;;;0.70;0.60;;;;;;;14.28;72.28;95624.75;5075054;28;20426;-63
2022/12/02 10:57:18;;;;;;;1.10;0.80;;;;;;;14.01;73.33;95650.09;5074724;28;20430;-65
2022/12/02 10:59:46;;;;;;;2.60;2.50;;;;;;;14.64;72.65;95665.97;5075848;28;20420;-65
2022/12/02 11:02:21;;;;;;;0.60;0.60;;;;;;;15.18;70.74;95654.81;5075021;28;20426;-64
2022/12/02 11:04:50;;;;;;;0.60;0.60;;;;;;;15.48;69.55;95650.94;5074968;28;20413;-64
2022/12/02 11:07:22;;;;;;;0.93;0.93;;;;;;;15.03;68.76;95605.09;5074455;28;20472;-64
2022/12/02 11:09:56;;;;;;;0.40;0.30;;;;;;;14.73;70.32;95660.75;5074560;28;20426;-63
2022/12/02 11:13:02;;;;;;;1.30;1.30;;;;;;;14.40;71.64;95660.63;5074393;28;20432;-63
2022/12/02 11:15:40;;;;;;;0.70;0.70;;;;;;;14.43;72.45;95651.28;5056783;28;20470;-62
2022/12/02 11:18:12;;;;;;;1.17;0.83;;;;;;;14.40;71.95;95651.84;5074311;28;20464;-62
2022/12/02 11:20:43;;;;;;;0.70;0.70;;;;;;;14.47;72.89;95646.97;5073396;28;20441;-61
2022/12/02 11:23:21;;;;;;;0.60;0.50;;;;;;;15.32;69.40;95649.53;5074022;28;20476;-60
2022/12/02 11:25:59;;;;;;;0.50;0.43;;;;;;;15.19;67.47;95641.19;5074556;28;20426;-60
2022/12/02 11:29:15;;;;;;;0.50;0.50;;;;;;;15.14;69.27;95654.59;5074099;28;20464;-60
2022/12/02 11:31:59;;;;;;;0.50;0.50;;;;;;;15.03;70.86;95633.66;5074119;28;20459;-59
2022/12/02 11:34:45;;;;;;;1.67;0.97;;;;;;;15.48;68.54;95645.59;5073764;28;20445;-60
2022/12/02 11:37:40;;;;;;;0.93;0.57;;;;;;;15.06;69.82;95649.91;5073737;28;20448;-61
2022/12/02 11:40:57;;;;;;;0.53;0.30;;;;;;;15.30;70.29;95649.03;5073673;28;20524;-60
2022/12/02 11:43:56;;;;;;;0.40;0.40;;;;;;;15.70;67.05;95651.09;5074046;28;20480;-61
2022/12/02 11:46:40;;;;;;;1.07;0.80;;;;;;;15.32;67.87;95654.88;5073907;28;20436;-62
2022/12/02 11:49:27;;;;;;;1.37;1.27;;;;;;;14.99;68.18;95611.31;5073868;28;20808;-63
2022/12/02 11:52:20;;;;;;;0.40;0.30;;;;;;;15.39;67.27;95639.28;5073506;28;20481;-62
2022/12/02 11:55:05;;;;;;;0.93;0.93;;;;;;;15.52;67.31;95641.22;5073748;28;20464;-62
2022/12/02 11:57:43;;;;;;;0.50;0.40;;;;;;;15.15;68.34;95650.06;5070909;28;20448;-64